createdAt,value
2022-10-15T06:34:53.248Z,14.30
2022-10-15T06:37:20.286Z,14.30
2022-10-15T06:39:47.503Z,14.30
2022-10-15T06:42:14.797Z,14.30
2022-10-15T06:44:42.025Z,14.30
2022-10-15T06:47:09.898Z,14.40
2022-10-15T06:49:37.047Z,14.40
2022-10-15T06:52:04.189Z,14.50
2022-10-15T06:54:31.361Z,14.50
2022-10-15T06:56:58.363Z,14.50
2022-10-15T06:59:25.414Z,14.50
2022-10-15T07:01:52.181Z,14.50
2022-10-15T07:04:19.158Z,14.60
2022-10-15T07:06:45.923Z,14.60
2022-10-15T07:09:12.709Z,14.50
2022-10-15T07:11:39.504Z,14.60
2022-10-15T07:14:06.595Z,14.60
2022-10-15T07:16:33.482Z,14.70
2022-10-15T07:19:00.508Z,14.70
2022-10-15T07:21:27.780Z,14.70
2022-10-15T07:23:54.669Z,14.70
2022-10-15T07:26:21.778Z,14.70
2022-10-15T07:28:49.023Z,14.70
2022-10-15T07:31:16.138Z,14.80
2022-10-15T07:33:44.083Z,14.80
2022-10-15T07:36:12.793Z,14.80
2022-10-15T07:38:40.707Z,14.80
2022-10-15T07:41:09.389Z,14.80
2022-10-15T07:43:37.018Z,14.80
2022-10-15T07:46:04.956Z,14.80
2022-10-15T07:48:32.650Z,14.90
2022-10-15T07:51:02.239Z,14.90
2022-10-15T07:53:29.397Z,15.00
2022-10-15T07:56:06.495Z,15.00
2022-10-15T07:58:34.729Z,15.00
2022-10-15T08:01:06.385Z,15.10
2022-10-15T08:03:39.172Z,15.10
2022-10-15T08:06:08.122Z,15.10
2022-10-15T08:08:42.263Z,15.20
2022-10-15T08:11:20.232Z,15.20
2022-10-15T08:13:48.926Z,15.20
2022-10-15T08:16:27.855Z,15.20
2022-10-15T08:18:54.887Z,15.30
2022-10-15T08:21:21.743Z,15.50
2022-10-15T08:23:51.645Z,15.50
2022-10-15T08:26:21.055Z,15.50
2022-10-15T08:28:48.560Z,15.60
2022-10-15T08:31:15.559Z,15.60
2022-10-15T08:33:42.715Z,15.60
2022-10-15T08:36:09.631Z,15.60
2022-10-15T08:38:36.602Z,15.60
2022-10-15T08:41:14.387Z,15.70
2022-10-15T08:43:42.986Z,15.70
2022-10-15T08:46:18.807Z,15.70
2022-10-15T08:48:54.014Z,15.70
2022-10-15T08:51:26.678Z,15.90
2022-10-15T08:54:04.148Z,16.00
2022-10-15T08:56:36.964Z,16.10
2022-10-15T08:59:33.852Z,16.20
2022-10-15T09:02:10.558Z,16.30
2022-10-15T09:04:49.174Z,16.40
2022-10-15T09:07:42.837Z,16.60
2022-10-15T09:10:30.197Z,16.90
2022-10-15T09:13:16.492Z,16.90
2022-10-15T09:16:21.607Z,16.90
2022-10-15T09:18:53.975Z,17.10
2022-10-15T09:21:23.854Z,17.20
2022-10-15T09:23:52.480Z,17.30
2022-10-15T09:26:51.824Z,17.40
2022-10-15T09:29:51.363Z,17.50
2022-10-15T09:32:41.292Z,17.60
2022-10-15T09:35:25.643Z,17.90
2022-10-15T09:38:23.307Z,18.10
2022-10-15T09:41:05.769Z,18.10
2022-10-15T09:43:38.729Z,18.30
2022-10-15T09:46:05.850Z,18.30
2022-10-15T09:48:39.937Z,18.30
2022-10-15T09:51:19.168Z,18.10
2022-10-15T09:54:17.003Z,18.10
2022-10-15T09:56:50.412Z,18.10
2022-10-15T09:59:19.226Z,18.10
2022-10-15T10:02:00.931Z,18.00
2022-10-15T10:04:30.964Z,18.00
2022-10-15T10:07:02.127Z,18.10
2022-10-15T10:09:54.155Z,18.00
2022-10-15T10:12:27.640Z,17.80
2022-10-15T10:15:30.146Z,17.70
2022-10-15T10:17:57.906Z,17.60
2022-10-15T10:20:27.505Z,17.70
2022-10-15T10:23:00.796Z,17.50
2022-10-15T10:25:30.771Z,17.50
2022-10-15T10:28:11.763Z,17.30
2022-10-15T10:30:50.974Z,17.40
2022-10-15T10:33:25.536Z,17.40
2022-10-15T10:35:52.669Z,17.40
2022-10-15T10:38:29.190Z,17.40
2022-10-15T10:41:09.731Z,17.40
2022-10-15T10:43:39.611Z,17.40
2022-10-15T10:46:15.777Z,17.60
2022-10-15T10:48:46.055Z,17.70
2022-10-15T10:51:19.457Z,17.80
2022-10-15T10:54:01.394Z,18.10
2022-10-15T10:56:34.906Z,18.70
2022-10-15T10:59:23.742Z,19.40
2022-10-15T11:01:51.152Z,19.90
2022-10-15T11:04:27.919Z,20.20
2022-10-15T11:07:05.120Z,20.30
2022-10-15T11:10:08.721Z,20.00
2022-10-15T11:12:38.868Z,19.90
2022-10-15T11:15:45.935Z,19.50
2022-10-15T11:18:24.559Z,19.40
2022-10-15T11:21:21.535Z,19.10
2022-10-15T11:24:20.005Z,19.00
2022-10-15T11:27:14.372Z,18.90
2022-10-15T11:30:27.326Z,18.80
2022-10-15T11:33:13.712Z,18.90
2022-10-15T11:35:54.011Z,18.70
2022-10-15T11:38:46.140Z,18.70
2022-10-15T11:41:37.463Z,18.60
2022-10-15T11:44:43.151Z,18.50
2022-10-15T11:47:48.710Z,18.50
2022-10-15T11:50:25.008Z,18.50
2022-10-15T11:53:15.987Z,18.50
2022-10-15T11:55:58.025Z,18.50
2022-10-15T11:58:33.861Z,18.50
2022-10-15T12:01:06.912Z,18.50
2022-10-15T12:03:43.922Z,18.50
2022-10-15T12:06:16.332Z,18.60
2022-10-15T12:08:44.850Z,18.70
2022-10-15T12:11:31.192Z,18.70
2022-10-15T12:14:07.233Z,18.80
2022-10-15T12:16:54.454Z,19.00
2022-10-15T12:19:46.077Z,19.40
2022-10-15T12:22:13.238Z,19.30
2022-10-15T12:24:40.803Z,19.30
2022-10-15T12:27:19.824Z,19.20
2022-10-15T12:29:48.420Z,19.20
2022-10-15T12:32:23.059Z,19.30
2022-10-15T12:34:55.888Z,19.30
2022-10-15T12:37:27.261Z,19.20
2022-10-15T12:40:23.252Z,19.30
2022-10-15T12:43:01.612Z,19.10
2022-10-15T12:45:39.218Z,19.30
2022-10-15T12:48:16.626Z,19.80
2022-10-15T12:50:43.775Z,20.50
2022-10-15T12:53:34.653Z,20.40
2022-10-15T12:56:11.090Z,20.20
2022-10-15T12:58:38.107Z,20.10
2022-10-15T13:01:09.736Z,19.80
2022-10-15T13:03:58.798Z,19.80
2022-10-15T13:06:40.299Z,19.70
2022-10-15T13:09:10.404Z,19.60
2022-10-15T13:14:31.971Z,19.60
2022-10-15T13:17:01.255Z,19.40
2022-10-15T13:19:41.636Z,19.40
2022-10-15T13:22:25.690Z,19.30
2022-10-15T13:24:53.139Z,19.20
2022-10-15T13:27:31.529Z,19.00
2022-10-15T13:29:58.883Z,19.10
2022-10-15T13:32:29.446Z,19.20
2022-10-15T13:34:57.691Z,19.20
2022-10-15T13:37:36.158Z,19.20
2022-10-15T13:40:07.935Z,19.10
2022-10-15T13:42:37.548Z,19.00
2022-10-15T13:45:15.357Z,18.90
2022-10-15T13:47:47.823Z,18.90
2022-10-15T13:50:19.108Z,19.00
2022-10-15T13:53:17.883Z,19.00
2022-10-15T13:55:49.404Z,19.10
2022-10-15T13:58:24.847Z,19.10
2022-10-15T14:01:00.198Z,19.10
2022-10-15T14:03:32.519Z,19.00
2022-10-15T14:06:16.043Z,18.80
2022-10-15T14:08:43.268Z,18.80
2022-10-15T14:11:12.709Z,19.10
2022-10-15T14:13:54.799Z,19.50
2022-10-15T14:16:28.627Z,19.90
2022-10-15T14:19:08.539Z,19.90
2022-10-15T14:21:36.798Z,20.20
2022-10-15T14:24:27.338Z,19.90
2022-10-15T14:26:54.494Z,19.70
2022-10-15T14:29:41.548Z,19.30
2022-10-15T14:32:30.820Z,19.30
2022-10-15T14:35:04.175Z,19.40
2022-10-15T14:37:36.386Z,19.60
2022-10-15T14:40:23.811Z,19.90
2022-10-15T14:43:16.592Z,20.00
2022-10-15T14:45:52.613Z,20.10
2022-10-15T14:48:27.973Z,19.60
2022-10-15T14:51:00.296Z,19.60
2022-10-15T14:53:31.126Z,19.70
2022-10-15T14:56:07.103Z,19.60
2022-10-15T14:58:34.713Z,19.20
2022-10-15T15:01:04.899Z,19.40
2022-10-15T15:03:48.451Z,19.70
2022-10-15T15:06:15.722Z,19.70
2022-10-15T15:08:42.868Z,19.70
2022-10-15T15:11:17.887Z,19.70
2022-10-15T15:13:45.774Z,19.50
2022-10-15T15:16:14.674Z,19.20
2022-10-15T15:18:46.612Z,19.10
2022-10-15T15:21:21.532Z,19.10
2022-10-15T15:23:49.228Z,19.00
2022-10-15T15:26:16.624Z,18.90
2022-10-15T15:28:43.891Z,18.90
2022-10-15T15:31:17.930Z,18.90
2022-10-15T15:33:45.713Z,18.70
2022-10-15T15:36:22.584Z,18.60
2022-10-15T15:38:51.606Z,18.50
2022-10-15T15:41:21.184Z,18.50
2022-10-15T15:43:49.176Z,18.40
2022-10-15T15:46:16.530Z,18.30
2022-10-15T15:48:44.189Z,18.30
2022-10-15T15:51:28.329Z,18.20
2022-10-15T15:53:57.233Z,18.20
2022-10-15T15:56:24.472Z,18.20
2022-10-15T15:58:52.138Z,18.10
2022-10-15T16:01:21.266Z,18.00
2022-10-15T16:03:48.314Z,18.00
2022-10-15T16:06:15.537Z,17.90
2022-10-15T16:08:42.738Z,17.90
2022-10-15T16:11:09.872Z,17.80
2022-10-15T16:13:36.804Z,17.70
2022-10-15T16:16:04.059Z,17.70
2022-10-15T16:18:31.286Z,17.70
2022-10-15T16:20:58.230Z,17.70
2022-10-15T16:23:25.250Z,17.60
2022-10-15T16:25:53.978Z,17.50
2022-10-15T16:28:21.049Z,17.50
2022-10-15T16:30:49.071Z,17.60
2022-10-15T16:33:16.697Z,17.50
2022-10-15T16:35:43.708Z,17.40
2022-10-15T16:38:10.822Z,17.40
2022-10-15T16:40:38.919Z,17.50
2022-10-15T16:43:06.177Z,17.40
2022-10-15T16:45:33.667Z,17.40
2022-10-15T16:48:00.683Z,17.40
2022-10-15T16:50:27.634Z,17.40
2022-10-15T16:52:54.901Z,17.40
2022-10-15T16:55:21.953Z,17.40
2022-10-15T16:57:48.866Z,17.30
2022-10-15T17:00:15.833Z,17.30
2022-10-15T17:02:42.871Z,17.30
2022-10-15T17:05:09.818Z,17.30
2022-10-15T17:07:36.758Z,17.30
2022-10-15T17:10:04.333Z,17.30
2022-10-15T17:12:31.263Z,17.30
2022-10-15T17:14:58.530Z,17.30
2022-10-15T17:17:25.573Z,17.30
2022-10-15T17:19:52.875Z,17.30
2022-10-15T17:22:21.177Z,17.30
2022-10-15T17:24:49.876Z,17.20
2022-10-15T17:27:17.048Z,17.30
2022-10-15T17:29:44.813Z,17.30
2022-10-15T17:32:11.864Z,17.30
2022-10-15T17:34:38.618Z,17.20
2022-10-15T17:37:05.455Z,17.10
2022-10-15T17:39:32.588Z,17.10
2022-10-15T17:41:59.858Z,17.00
2022-10-15T17:44:26.795Z,17.00
2022-10-15T17:46:54.155Z,16.90
2022-10-15T17:49:21.041Z,16.90
2022-10-15T17:51:48.449Z,16.90
2022-10-15T17:54:16.569Z,16.80
2022-10-15T17:56:43.475Z,16.90
2022-10-15T17:59:12.578Z,16.90
2022-10-15T18:01:59.202Z,16.90
2022-10-15T18:04:29.105Z,16.90
2022-10-15T18:06:56.214Z,16.90
2022-10-15T18:09:23.994Z,16.90
2022-10-15T18:11:51.454Z,16.90
2022-10-15T18:14:18.532Z,16.90
2022-10-15T18:16:45.974Z,16.90
2022-10-15T18:19:13.401Z,16.90
2022-10-15T18:21:41.387Z,16.80
2022-10-15T18:24:08.762Z,16.90
2022-10-15T18:26:35.747Z,16.90
2022-10-15T18:29:02.678Z,16.80
2022-10-15T18:31:31.405Z,16.80
2022-10-15T18:33:58.373Z,16.80
2022-10-15T18:36:28.111Z,16.80
2022-10-15T18:38:55.841Z,16.80
2022-10-15T18:41:29.033Z,16.70
2022-10-15T18:43:58.446Z,16.70
2022-10-15T18:46:27.534Z,16.60
2022-10-15T18:48:56.800Z,16.60
2022-10-15T18:51:25.460Z,16.60
2022-10-15T18:53:53.403Z,16.60
2022-10-15T18:56:21.481Z,16.60
2022-10-15T18:58:48.309Z,16.60
2022-10-15T19:01:27.367Z,16.60
2022-10-15T19:03:56.374Z,16.60
2022-10-15T19:06:29.664Z,16.60
2022-10-15T19:08:58.109Z,16.60
2022-10-15T19:11:26.505Z,16.60
2022-10-15T19:13:56.389Z,16.50
2022-10-15T19:16:23.717Z,16.50
2022-10-15T19:18:50.508Z,16.50
2022-10-15T19:21:17.598Z,16.50
2022-10-15T19:23:44.348Z,16.50
2022-10-15T19:26:13.126Z,16.50
2022-10-15T19:28:40.461Z,16.50
2022-10-15T19:31:09.007Z,16.40
2022-10-15T19:33:36.157Z,16.40
2022-10-15T19:36:03.678Z,16.40
2022-10-15T19:38:30.561Z,16.40
2022-10-15T19:41:01.685Z,16.30
2022-10-15T19:43:28.759Z,16.30
2022-10-15T19:45:55.620Z,16.30
2022-10-15T19:48:24.827Z,16.30
2022-10-15T19:50:52.253Z,16.30
2022-10-15T19:53:19.408Z,16.20
2022-10-15T19:55:56.276Z,16.20
2022-10-15T19:58:23.964Z,16.20
2022-10-15T20:00:52.059Z,16.20
2022-10-15T20:03:20.057Z,16.20
2022-10-15T20:05:47.560Z,16.20
2022-10-15T20:08:15.943Z,16.10
2022-10-15T20:10:47.974Z,16.10
2022-10-15T20:13:15.878Z,16.10
2022-10-15T20:15:44.762Z,16.10
2022-10-15T20:18:12.369Z,16.10
2022-10-15T20:20:41.127Z,16.20
2022-10-15T20:23:08.575Z,16.10
2022-10-15T20:25:38.649Z,16.10
2022-10-15T20:28:06.449Z,16.10
2022-10-15T20:30:33.609Z,16.10
2022-10-15T20:33:00.538Z,16.10
2022-10-15T20:35:27.697Z,16.00
2022-10-15T20:37:54.456Z,16.00
2022-10-15T20:40:21.573Z,16.00
2022-10-15T20:42:48.664Z,16.00
2022-10-15T20:45:16.306Z,16.00
2022-10-15T20:47:48.978Z,16.00
2022-10-15T20:50:20.808Z,16.00
2022-10-15T20:52:48.601Z,16.10
2022-10-15T20:55:15.679Z,16.10
2022-10-15T20:57:43.331Z,16.00
2022-10-15T21:00:11.369Z,16.00
2022-10-15T21:02:38.609Z,16.00
2022-10-15T21:05:06.094Z,15.90
2022-10-15T21:07:33.060Z,15.90
2022-10-15T21:10:00.239Z,15.80
2022-10-15T21:12:27.619Z,15.70
2022-10-15T21:14:55.271Z,15.60
2022-10-15T21:17:22.292Z,15.50
2022-10-15T21:19:52.660Z,15.50
2022-10-15T21:22:20.466Z,15.40
2022-10-15T21:24:47.507Z,15.40
2022-10-15T21:27:14.895Z,15.40
2022-10-15T21:29:43.048Z,15.30
2022-10-15T21:32:10.316Z,15.20
2022-10-15T21:34:37.177Z,15.10
2022-10-15T21:37:04.616Z,15.00
2022-10-15T21:39:31.973Z,15.00
2022-10-15T21:41:58.996Z,15.00
2022-10-15T21:44:25.954Z,15.00
2022-10-15T21:46:53.130Z,14.90
2022-10-15T21:49:19.956Z,14.90
2022-10-15T21:51:47.029Z,14.90
2022-10-15T21:54:13.938Z,14.80
2022-10-15T21:56:40.770Z,14.80
2022-10-15T21:59:07.944Z,14.70
2022-10-15T22:01:37.919Z,14.80
2022-10-15T22:04:07.751Z,14.90
2022-10-15T22:06:36.359Z,15.10
2022-10-15T22:09:04.614Z,15.10
2022-10-15T22:11:36.997Z,15.30
2022-10-15T22:14:07.120Z,15.30
2022-10-15T22:16:37.953Z,15.30
2022-10-15T22:19:05.914Z,15.30
2022-10-15T22:21:36.602Z,15.30
2022-10-15T22:24:09.948Z,15.30
2022-10-15T22:26:39.700Z,15.30
2022-10-15T22:29:08.138Z,15.30
2022-10-15T22:31:35.493Z,15.30
2022-10-15T22:34:02.990Z,15.20
2022-10-15T22:36:30.896Z,15.20
2022-10-15T22:39:02.589Z,15.20
2022-10-15T22:41:31.788Z,15.20
2022-10-15T22:43:59.071Z,15.20
2022-10-15T22:46:27.343Z,15.20
2022-10-15T22:48:54.704Z,15.10
2022-10-15T22:51:22.162Z,15.10
2022-10-15T22:53:49.125Z,15.00
2022-10-15T22:56:17.969Z,15.00
2022-10-15T22:58:45.757Z,15.00
2022-10-15T23:01:13.987Z,14.90
2022-10-15T23:03:42.888Z,14.90
2022-10-15T23:06:09.882Z,14.90
2022-10-15T23:08:38.772Z,14.90
2022-10-15T23:11:24.849Z,14.80
2022-10-15T23:13:54.270Z,14.90
2022-10-15T23:16:24.374Z,14.90
2022-10-15T23:18:59.794Z,14.90
2022-10-15T23:21:32.014Z,14.90
2022-10-15T23:23:59.652Z,14.90
2022-10-15T23:26:38.419Z,14.90
2022-10-15T23:29:15.782Z,14.80
2022-10-15T23:31:43.852Z,14.80
2022-10-15T23:34:19.186Z,14.70
2022-10-15T23:36:47.576Z,14.70
2022-10-15T23:39:23.485Z,14.70
2022-10-15T23:41:52.602Z,14.70
2022-10-15T23:44:25.744Z,14.70
2022-10-15T23:46:52.905Z,14.70
2022-10-15T23:49:20.084Z,14.70
2022-10-15T23:51:47.152Z,14.70
2022-10-15T23:54:17.669Z,14.70
2022-10-15T23:56:46.820Z,14.70
2022-10-15T23:59:14.843Z,14.70
